sensor_id;sensor_type;location;lat;lon;timestamp;temperature;humidity
61912;DHT22;49973;52.084;5.412;2023-05-02T00:00:02;11.00;98.60
61912;DHT22;49973;52.084;5.412;2023-05-02T00:02:32;11.00;98.70
61912;DHT22;49973;52.084;5.412;2023-05-02T00:05:02;11.10;98.90
61912;DHT22;49973;52.084;5.412;2023-05-02T00:07:31;11.10;99.00
61912;DHT22;49973;52.084;5.412;2023-05-02T00:10:00;11.10;99.10
61912;DHT22;49973;52.084;5.412;2023-05-02T00:12:29;11.30;99.20
61912;DHT22;49973;52.084;5.412;2023-05-02T00:14:58;11.20;99.20
61912;DHT22;49973;52.084;5.412;2023-05-02T00:17:27;11.20;99.20
61912;DHT22;49973;52.084;5.412;2023-05-02T00:19:56;11.20;99.40
61912;DHT22;49973;52.084;5.412;2023-05-02T00:22:26;11.30;99.40
61912;DHT22;49973;52.084;5.412;2023-05-02T00:24:55;11.30;99.60
61912;DHT22;49973;52.084;5.412;2023-05-02T00:27:24;11.30;99.60
61912;DHT22;49973;52.084;5.412;2023-05-02T00:29:53;11.30;99.70
61912;DHT22;49973;52.084;5.412;2023-05-02T00:32:22;11.30;99.70
61912;DHT22;49973;52.084;5.412;2023-05-02T00:34:50;11.40;99.70
61912;DHT22;49973;52.084;5.412;2023-05-02T00:37:19;11.40;99.80
61912;DHT22;49973;52.084;5.412;2023-05-02T00:39:49;11.40;99.90
61912;DHT22;49973;52.084;5.412;2023-05-02T00:42:18;11.40;99.90
61912;DHT22;49973;52.084;5.412;2023-05-02T00:44:46;11.50;99.90
61912;DHT22;49973;52.084;5.412;2023-05-02T00:47:15;11.50;99.90
61912;DHT22;49973;52.084;5.412;2023-05-02T00:49:44;11.50;99.90
61912;DHT22;49973;52.084;5.412;2023-05-02T00:52:12;11.50;99.90
61912;DHT22;49973;52.084;5.412;2023-05-02T00:54:41;11.50;99.90
61912;DHT22;49973;52.084;5.412;2023-05-02T00:57:12;11.50;99.90
61912;DHT22;49973;52.084;5.412;2023-05-02T00:59:40;11.50;99.90
61912;DHT22;49973;52.084;5.412;2023-05-02T01:02:24;11.50;99.90
61912;DHT22;49973;52.084;5.412;2023-05-02T01:05:01;11.50;99.90
61912;DHT22;49973;52.084;5.412;2023-05-02T01:07:50;11.50;99.90
61912;DHT22;49973;52.084;5.412;2023-05-02T01:10:27;11.50;99.90
61912;DHT22;49973;52.084;5.412;2023-05-02T01:13:03;11.50;99.90
61912;DHT22;49973;52.084;5.412;2023-05-02T01:15:36;11.50;99.90
61912;DHT22;49973;52.084;5.412;2023-05-02T01:18:08;11.50;99.90
61912;DHT22;49973;52.084;5.412;2023-05-02T01:20:41;11.50;99.90
61912;DHT22;49973;52.084;5.412;2023-05-02T01:23:16;11.50;99.90
61912;DHT22;49973;52.084;5.412;2023-05-02T01:25:59;11.50;99.90
61912;DHT22;49973;52.084;5.412;2023-05-02T01:28:53;11.50;99.90
61912;DHT22;49973;52.084;5.412;2023-05-02T01:31:24;11.40;99.90
61912;DHT22;49973;52.084;5.412;2023-05-02T01:33:54;11.40;99.90
61912;DHT22;49973;52.084;5.412;2023-05-02T01:36:27;11.40;99.90
61912;DHT22;49973;52.084;5.412;2023-05-02T01:38:59;11.40;99.90
61912;DHT22;49973;52.084;5.412;2023-05-02T01:41:30;11.30;99.90
61912;DHT22;49973;52.084;5.412;2023-05-02T01:44:01;11.30;99.90
61912;DHT22;49973;52.084;5.412;2023-05-02T01:46:33;11.20;99.90
61912;DHT22;49973;52.084;5.412;2023-05-02T01:49:05;11.20;99.90
61912;DHT22;49973;52.084;5.412;2023-05-02T01:51:39;11.20;99.90
61912;DHT22;49973;52.084;5.412;2023-05-02T01:54:12;11.10;99.90
61912;DHT22;49973;52.084;5.412;2023-05-02T01:56:43;11.10;99.90
61912;DHT22;49973;52.084;5.412;2023-05-02T01:59:19;11.10;99.90
61912;DHT22;49973;52.084;5.412;2023-05-02T02:01:50;11.10;99.90
61912;DHT22;49973;52.084;5.412;2023-05-02T02:04:20;11.10;99.90
61912;DHT22;49973;52.084;5.412;2023-05-02T02:06:52;11.00;99.90
61912;DHT22;49973;52.084;5.412;2023-05-02T02:09:22;11.00;99.90
61912;DHT22;49973;52.084;5.412;2023-05-02T02:11:54;11.00;99.90
61912;DHT22;49973;52.084;5.412;2023-05-02T02:14:26;10.90;99.90
61912;DHT22;49973;52.084;5.412;2023-05-02T02:17:02;10.90;99.90
61912;DHT22;49973;52.084;5.412;2023-05-02T02:19:33;10.90;99.90
61912;DHT22;49973;52.084;5.412;2023-05-02T02:22:03;10.90;99.90
61912;DHT22;49973;52.084;5.412;2023-05-02T02:24:34;10.90;99.90
61912;DHT22;49973;52.084;5.412;2023-05-02T02:27:04;10.90;99.90
61912;DHT22;49973;52.084;5.412;2023-05-02T02:29:34;10.80;99.90
61912;DHT22;49973;52.084;5.412;2023-05-02T02:32:03;10.80;99.90
61912;DHT22;49973;52.084;5.412;2023-05-02T02:34:32;10.80;99.90
61912;DHT22;49973;52.084;5.412;2023-05-02T02:37:03;10.80;99.90
61912;DHT22;49973;52.084;5.412;2023-05-02T02:39:41;10.70;99.90
61912;DHT22;49973;52.084;5.412;2023-05-02T02:42:15;10.80;99.90
61912;DHT22;49973;52.084;5.412;2023-05-02T02:44:53;10.80;99.90
61912;DHT22;49973;52.084;5.412;2023-05-02T02:47:28;10.70;99.90
61912;DHT22;49973;52.084;5.412;2023-05-02T02:50:10;10.70;99.90
61912;DHT22;49973;52.084;5.412;2023-05-02T02:52:49;10.70;99.90
61912;DHT22;49973;52.084;5.412;2023-05-02T02:55:28;10.70;99.90
61912;DHT22;49973;52.084;5.412;2023-05-02T02:58:01;10.60;99.90
61912;DHT22;49973;52.084;5.412;2023-05-02T03:00:34;10.60;99.90
61912;DHT22;49973;52.084;5.412;2023-05-02T03:03:04;10.60;99.90
61912;DHT22;49973;52.084;5.412;2023-05-02T03:05:34;10.60;99.90
61912;DHT22;49973;52.084;5.412;2023-05-02T03:08:03;10.60;99.90
61912;DHT22;49973;52.084;5.412;2023-05-02T03:10:32;10.60;99.90
61912;DHT22;49973;52.084;5.412;2023-05-02T03:13:01;10.50;99.90
61912;DHT22;49973;52.084;5.412;2023-05-02T03:18:31;10.40;99.90
61912;DHT22;49973;52.084;5.412;2023-05-02T03:21:00;10.40;99.90
61912;DHT22;49973;52.084;5.412;2023-05-02T03:23:29;10.40;99.90
61912;DHT22;49973;52.084;5.412;2023-05-02T03:25:58;10.40;99.90
61912;DHT22;49973;52.084;5.412;2023-05-02T03:28:27;10.40;99.90
61912;DHT22;49973;52.084;5.412;2023-05-02T03:30:58;10.40;99.90
61912;DHT22;49973;52.084;5.412;2023-05-02T03:33:27;10.40;99.90
61912;DHT22;49973;52.084;5.412;2023-05-02T03:35:55;10.40;99.90
61912;DHT22;49973;52.084;5.412;2023-05-02T03:38:24;10.40;99.90
61912;DHT22;49973;52.084;5.412;2023-05-02T03:40:56;10.40;99.90
61912;DHT22;49973;52.084;5.412;2023-05-02T03:43:25;10.40;99.90
61912;DHT22;49973;52.084;5.412;2023-05-02T03:45:55;10.40;99.90
61912;DHT22;49973;52.084;5.412;2023-05-02T03:48:25;10.40;99.90
61912;DHT22;49973;52.084;5.412;2023-05-02T03:50:54;10.40;99.90
61912;DHT22;49973;52.084;5.412;2023-05-02T03:53:23;10.40;99.90
61912;DHT22;49973;52.084;5.412;2023-05-02T03:55:57;10.30;99.90
61912;DHT22;49973;52.084;5.412;2023-05-02T03:58:37;10.40;99.90
61912;DHT22;49973;52.084;5.412;2023-05-02T04:01:12;10.30;99.90
61912;DHT22;49973;52.084;5.412;2023-05-02T04:03:45;10.30;99.90
61912;DHT22;49973;52.084;5.412;2023-05-02T04:06:16;10.30;99.90
61912;DHT22;49973;52.084;5.412;2023-05-02T04:08:51;10.30;99.90
61912;DHT22;49973;52.084;5.412;2023-05-02T04:11:25;10.40;99.90
61912;DHT22;49973;52.084;5.412;2023-05-02T04:13:56;10.20;99.90
61912;DHT22;49973;52.084;5.412;2023-05-02T04:16:25;10.30;99.90
61912;DHT22;49973;52.084;5.412;2023-05-02T04:18:55;10.20;99.90
61912;DHT22;49973;52.084;5.412;2023-05-02T04:21:25;10.20;99.90
61912;DHT22;49973;52.084;5.412;2023-05-02T04:23:54;10.20;99.90
61912;DHT22;49973;52.084;5.412;2023-05-02T04:26:24;10.20;99.90
61912;DHT22;49973;52.084;5.412;2023-05-02T04:28:59;10.20;99.90
61912;DHT22;49973;52.084;5.412;2023-05-02T04:31:27;10.20;99.90
61912;DHT22;49973;52.084;5.412;2023-05-02T04:33:58;10.10;99.90
61912;DHT22;49973;52.084;5.412;2023-05-02T04:36:31;10.10;99.90
61912;DHT22;49973;52.084;5.412;2023-05-02T04:39:01;10.10;99.90
61912;DHT22;49973;52.084;5.412;2023-05-02T04:41:33;10.10;99.90
61912;DHT22;49973;52.084;5.412;2023-05-02T04:44:05;10.10;99.90
61912;DHT22;49973;52.084;5.412;2023-05-02T04:46:35;10.10;99.90
61912;DHT22;49973;52.084;5.412;2023-05-02T04:49:05;10.30;99.90
61912;DHT22;49973;52.084;5.412;2023-05-02T04:51:33;10.10;99.90
61912;DHT22;49973;52.084;5.412;2023-05-02T04:54:02;10.10;99.90
61912;DHT22;49973;52.084;5.412;2023-05-02T04:56:31;10.10;99.90
61912;DHT22;49973;52.084;5.412;2023-05-02T04:58:59;10.00;99.90
61912;DHT22;49973;52.084;5.412;2023-05-02T05:01:29;10.00;99.90
61912;DHT22;49973;52.084;5.412;2023-05-02T05:04:00;9.90;99.90
61912;DHT22;49973;52.084;5.412;2023-05-02T05:06:30;10.00;99.90
61912;DHT22;49973;52.084;5.412;2023-05-02T05:09:00;9.90;99.90
61912;DHT22;49973;52.084;5.412;2023-05-02T05:11:28;9.90;99.90
61912;DHT22;49973;52.084;5.412;2023-05-02T05:13:57;9.90;99.90
61912;DHT22;49973;52.084;5.412;2023-05-02T05:16:28;9.90;99.90
61912;DHT22;49973;52.084;5.412;2023-05-02T05:18:57;10.00;99.90
61912;DHT22;49973;52.084;5.412;2023-05-02T05:21:25;10.00;99.90
61912;DHT22;49973;52.084;5.412;2023-05-02T05:23:57;10.00;99.90
61912;DHT22;49973;52.084;5.412;2023-05-02T05:26:28;10.00;99.90
61912;DHT22;49973;52.084;5.412;2023-05-02T05:28:57;10.00;99.90
61912;DHT22;49973;52.084;5.412;2023-05-02T05:31:31;10.00;99.90
61912;DHT22;49973;52.084;5.412;2023-05-02T05:34:00;10.10;99.90
61912;DHT22;49973;52.084;5.412;2023-05-02T05:36:30;10.10;99.90
61912;DHT22;49973;52.084;5.412;2023-05-02T05:39:02;10.10;99.90
61912;DHT22;49973;52.084;5.412;2023-05-02T05:41:33;10.10;99.90
61912;DHT22;49973;52.084;5.412;2023-05-02T05:44:05;10.10;99.90
61912;DHT22;49973;52.084;5.412;2023-05-02T05:46:34;10.00;99.90
61912;DHT22;49973;52.084;5.412;2023-05-02T05:49:04;10.00;99.90
61912;DHT22;49973;52.084;5.412;2023-05-02T05:51:34;9.90;99.90
61912;DHT22;49973;52.084;5.412;2023-05-02T05:54:04;9.90;99.90
61912;DHT22;49973;52.084;5.412;2023-05-02T05:56:33;9.80;99.90
61912;DHT22;49973;52.084;5.412;2023-05-02T05:59:08;9.80;99.90
61912;DHT22;49973;52.084;5.412;2023-05-02T06:01:37;9.80;99.90
61912;DHT22;49973;52.084;5.412;2023-05-02T06:04:07;9.80;99.90
61912;DHT22;49973;52.084;5.412;2023-05-02T06:06:39;9.80;99.90
61912;DHT22;49973;52.084;5.412;2023-05-02T06:09:10;9.90;99.90
61912;DHT22;49973;52.084;5.412;2023-05-02T06:11:38;9.90;99.90
61912;DHT22;49973;52.084;5.412;2023-05-02T06:14:07;10.00;99.90
61912;DHT22;49973;52.084;5.412;2023-05-02T06:16:36;10.00;99.90
61912;DHT22;49973;52.084;5.412;2023-05-02T06:19:05;10.10;99.90
61912;DHT22;49973;52.084;5.412;2023-05-02T06:21:35;10.20;99.90
61912;DHT22;49973;52.084;5.412;2023-05-02T06:24:04;10.30;99.90
61912;DHT22;49973;52.084;5.412;2023-05-02T06:26:34;10.40;99.90
61912;DHT22;49973;52.084;5.412;2023-05-02T06:29:03;10.40;99.90
61912;DHT22;49973;52.084;5.412;2023-05-02T06:31:32;10.50;99.90
61912;DHT22;49973;52.084;5.412;2023-05-02T06:34:00;10.60;99.90
61912;DHT22;49973;52.084;5.412;2023-05-02T06:36:29;10.70;99.90
61912;DHT22;49973;52.084;5.412;2023-05-02T06:38:58;10.70;99.90
61912;DHT22;49973;52.084;5.412;2023-05-02T06:41:27;10.90;99.90
61912;DHT22;49973;52.084;5.412;2023-05-02T06:43:57;10.90;99.90
61912;DHT22;49973;52.084;5.412;2023-05-02T06:46:28;11.00;99.90
61912;DHT22;49973;52.084;5.412;2023-05-02T06:48:57;11.10;99.90
61912;DHT22;49973;52.084;5.412;2023-05-02T06:51:26;11.10;99.90
61912;DHT22;49973;52.084;5.412;2023-05-02T06:53:54;11.20;99.90
61912;DHT22;49973;52.084;5.412;2023-05-02T06:56:23;11.20;99.90
61912;DHT22;49973;52.084;5.412;2023-05-02T06:58:52;11.40;99.90
61912;DHT22;49973;52.084;5.412;2023-05-02T07:01:22;11.30;99.90
61912;DHT22;49973;52.084;5.412;2023-05-02T07:03:51;11.30;99.90
61912;DHT22;49973;52.084;5.412;2023-05-02T07:06:20;11.30;99.90
61912;DHT22;49973;52.084;5.412;2023-05-02T07:08:49;11.30;99.90
61912;DHT22;49973;52.084;5.412;2023-05-02T07:11:17;11.30;99.90
61912;DHT22;49973;52.084;5.412;2023-05-02T07:13:47;11.20;99.90
61912;DHT22;49973;52.084;5.412;2023-05-02T07:16:16;11.10;99.90
61912;DHT22;49973;52.084;5.412;2023-05-02T07:18:46;11.00;99.90
61912;DHT22;49973;52.084;5.412;2023-05-02T07:21:15;10.90;99.90
61912;DHT22;49973;52.084;5.412;2023-05-02T07:23:45;10.90;99.90
61912;DHT22;49973;52.084;5.412;2023-05-02T07:26:13;11.00;99.90
61912;DHT22;49973;52.084;5.412;2023-05-02T07:28:43;10.80;99.90
61912;DHT22;49973;52.084;5.412;2023-05-02T07:31:11;10.90;99.90
61912;DHT22;49973;52.084;5.412;2023-05-02T07:33:40;11.00;99.90
61912;DHT22;49973;52.084;5.412;2023-05-02T07:36:10;11.30;99.90
61912;DHT22;49973;52.084;5.412;2023-05-02T07:38:38;11.50;99.90
61912;DHT22;49973;52.084;5.412;2023-05-02T07:41:07;11.40;99.90
61912;DHT22;49973;52.084;5.412;2023-05-02T07:43:36;11.30;99.90
61912;DHT22;49973;52.084;5.412;2023-05-02T07:46:05;11.30;99.90
61912;DHT22;49973;52.084;5.412;2023-05-02T07:48:34;11.40;99.90
61912;DHT22;49973;52.084;5.412;2023-05-02T07:51:06;11.40;99.90
61912;DHT22;49973;52.084;5.412;2023-05-02T07:53:36;11.50;99.90
61912;DHT22;49973;52.084;5.412;2023-05-02T07:56:05;11.50;99.90
61912;DHT22;49973;52.084;5.412;2023-05-02T07:58:35;11.60;99.90
61912;DHT22;49973;52.084;5.412;2023-05-02T08:01:04;11.60;99.90
61912;DHT22;49973;52.084;5.412;2023-05-02T08:03:32;11.60;99.90
61912;DHT22;49973;52.084;5.412;2023-05-02T08:06:01;11.50;99.90
61912;DHT22;49973;52.084;5.412;2023-05-02T08:08:30;11.50;99.90
61912;DHT22;49973;52.084;5.412;2023-05-02T08:11:00;11.60;99.90
61912;DHT22;49973;52.084;5.412;2023-05-02T08:13:29;11.60;99.90
61912;DHT22;49973;52.084;5.412;2023-05-02T08:15:57;11.70;99.90
61912;DHT22;49973;52.084;5.412;2023-05-02T08:18:26;11.70;99.90
61912;DHT22;49973;52.084;5.412;2023-05-02T08:20:55;11.70;99.90
61912;DHT22;49973;52.084;5.412;2023-05-02T08:23:24;11.80;99.90
61912;DHT22;49973;52.084;5.412;2023-05-02T08:25:53;11.80;99.90
61912;DHT22;49973;52.084;5.412;2023-05-02T08:28:23;11.80;99.90
61912;DHT22;49973;52.084;5.412;2023-05-02T08:30:52;11.80;99.90
61912;DHT22;49973;52.084;5.412;2023-05-02T08:33:20;11.80;99.90
61912;DHT22;49973;52.084;5.412;2023-05-02T08:35:49;11.90;99.90
61912;DHT22;49973;52.084;5.412;2023-05-02T08:38:17;12.10;99.90
61912;DHT22;49973;52.084;5.412;2023-05-02T08:40:46;12.30;99.90
61912;DHT22;49973;52.084;5.412;2023-05-02T08:43:15;12.50;99.90
61912;DHT22;49973;52.084;5.412;2023-05-02T08:45:45;12.70;99.90
61912;DHT22;49973;52.084;5.412;2023-05-02T08:48:15;12.80;99.90
61912;DHT22;49973;52.084;5.412;2023-05-02T08:50:45;13.00;99.90
61912;DHT22;49973;52.084;5.412;2023-05-02T08:53:14;13.10;99.90
61912;DHT22;49973;52.084;5.412;2023-05-02T08:55:44;13.20;99.90
61912;DHT22;49973;52.084;5.412;2023-05-02T08:58:13;13.10;99.90
61912;DHT22;49973;52.084;5.412;2023-05-02T09:00:47;13.00;99.90
61912;DHT22;49973;52.084;5.412;2023-05-02T09:03:22;13.00;99.90
61912;DHT22;49973;52.084;5.412;2023-05-02T09:06:04;12.90;99.90
61912;DHT22;49973;52.084;5.412;2023-05-02T09:08:34;13.00;99.90
61912;DHT22;49973;52.084;5.412;2023-05-02T09:11:04;13.30;99.90
61912;DHT22;49973;52.084;5.412;2023-05-02T09:13:34;13.40;99.90
61912;DHT22;49973;52.084;5.412;2023-05-02T09:16:06;13.60;99.90
61912;DHT22;49973;52.084;5.412;2023-05-02T09:18:37;13.70;99.90
61912;DHT22;49973;52.084;5.412;2023-05-02T09:21:07;13.90;99.90
61912;DHT22;49973;52.084;5.412;2023-05-02T09:23:38;14.30;99.90
61912;DHT22;49973;52.084;5.412;2023-05-02T09:26:11;14.60;99.90
61912;DHT22;49973;52.084;5.412;2023-05-02T09:28:41;14.90;99.90
61912;DHT22;49973;52.084;5.412;2023-05-02T09:31:13;15.00;99.90
61912;DHT22;49973;52.084;5.412;2023-05-02T09:33:49;14.90;99.90
61912;DHT22;49973;52.084;5.412;2023-05-02T09:36:19;14.80;99.90
61912;DHT22;49973;52.084;5.412;2023-05-02T09:38:49;14.60;99.90
61912;DHT22;49973;52.084;5.412;2023-05-02T09:41:17;14.30;99.90
61912;DHT22;49973;52.084;5.412;2023-05-02T09:43:54;14.40;99.90
61912;DHT22;49973;52.084;5.412;2023-05-02T09:46:25;14.20;99.90
61912;DHT22;49973;52.084;5.412;2023-05-02T09:49:07;14.10;99.90
61912;DHT22;49973;52.084;5.412;2023-05-02T09:51:36;14.20;99.90
61912;DHT22;49973;52.084;5.412;2023-05-02T09:54:05;14.20;99.90
61912;DHT22;49973;52.084;5.412;2023-05-02T09:56:51;14.50;99.90
61912;DHT22;49973;52.084;5.412;2023-05-02T09:59:20;14.60;99.90
61912;DHT22;49973;52.084;5.412;2023-05-02T10:01:57;14.90;99.90
61912;DHT22;49973;52.084;5.412;2023-05-02T10:04:27;15.20;99.90
61912;DHT22;49973;52.084;5.412;2023-05-02T10:06:57;15.30;99.90
61912;DHT22;49973;52.084;5.412;2023-05-02T10:09:27;15.20;99.90
61912;DHT22;49973;52.084;5.412;2023-05-02T10:12:01;15.30;99.90
61912;DHT22;49973;52.084;5.412;2023-05-02T10:14:38;15.40;99.90
61912;DHT22;49973;52.084;5.412;2023-05-02T10:17:12;15.50;99.90
61912;DHT22;49973;52.084;5.412;2023-05-02T10:19:47;15.90;99.90
61912;DHT22;49973;52.084;5.412;2023-05-02T10:22:19;16.70;99.90
61912;DHT22;49973;52.084;5.412;2023-05-02T10:24:48;17.20;99.90
61912;DHT22;49973;52.084;5.412;2023-05-02T10:27:17;17.10;99.90
61912;DHT22;49973;52.084;5.412;2023-05-02T10:29:46;16.80;99.90
61912;DHT22;49973;52.084;5.412;2023-05-02T10:32:17;16.50;99.90
61912;DHT22;49973;52.084;5.412;2023-05-02T10:34:46;16.40;99.90
61912;DHT22;49973;52.084;5.412;2023-05-02T10:37:16;16.60;99.90
61912;DHT22;49973;52.084;5.412;2023-05-02T10:39:45;17.10;99.90
61912;DHT22;49973;52.084;5.412;2023-05-02T10:42:14;17.60;99.90
61912;DHT22;49973;52.084;5.412;2023-05-02T10:44:43;17.90;99.90
61912;DHT22;49973;52.084;5.412;2023-05-02T10:47:18;17.80;99.90
61912;DHT22;49973;52.084;5.412;2023-05-02T10:49:52;17.40;99.90
61912;DHT22;49973;52.084;5.412;2023-05-02T10:52:28;17.30;99.90
61912;DHT22;49973;52.084;5.412;2023-05-02T10:55:18;17.50;99.90
61912;DHT22;49973;52.084;5.412;2023-05-02T10:58:20;17.90;99.90
61912;DHT22;49973;52.084;5.412;2023-05-02T11:00:49;18.40;99.90
61912;DHT22;49973;52.084;5.412;2023-05-02T11:03:54;18.50;99.90
61912;DHT22;49973;52.084;5.412;2023-05-02T11:06:24;18.30;99.90
61912;DHT22;49973;52.084;5.412;2023-05-02T11:08:55;17.90;99.90
61912;DHT22;49973;52.084;5.412;2023-05-02T11:11:45;17.80;99.90
61912;DHT22;49973;52.084;5.412;2023-05-02T11:14:47;18.10;99.90
61912;DHT22;49973;52.084;5.412;2023-05-02T11:17:17;18.30;99.90
61912;DHT22;49973;52.084;5.412;2023-05-02T11:22:58;18.60;99.90
61912;DHT22;49973;52.084;5.412;2023-05-02T11:25:32;18.60;99.90
61912;DHT22;49973;52.084;5.412;2023-05-02T11:28:03;18.20;99.90
61912;DHT22;49973;52.084;5.412;2023-05-02T11:30:42;18.00;99.90
61912;DHT22;49973;52.084;5.412;2023-05-02T11:33:17;17.90;99.90
61912;DHT22;49973;52.084;5.412;2023-05-02T11:35:47;18.20;99.90
61912;DHT22;49973;52.084;5.412;2023-05-02T11:38:18;18.60;99.90
61912;DHT22;49973;52.084;5.412;2023-05-02T11:40:56;18.80;99.90
61912;DHT22;49973;52.084;5.412;2023-05-02T11:43:26;18.90;99.90
61912;DHT22;49973;52.084;5.412;2023-05-02T11:45:59;19.00;99.90
61912;DHT22;49973;52.084;5.412;2023-05-02T11:48:29;18.90;99.90
61912;DHT22;49973;52.084;5.412;2023-05-02T11:50:59;18.40;99.90
61912;DHT22;49973;52.084;5.412;2023-05-02T11:53:33;18.00;99.90
61912;DHT22;49973;52.084;5.412;2023-05-02T11:56:07;18.00;99.90
61912;DHT22;49973;52.084;5.412;2023-05-02T11:58:36;18.30;99.90
61912;DHT22;49973;52.084;5.412;2023-05-02T12:01:11;18.70;99.90
61912;DHT22;49973;52.084;5.412;2023-05-02T12:03:40;18.90;99.90
61912;DHT22;49973;52.084;5.412;2023-05-02T12:06:11;18.70;99.90
61912;DHT22;49973;52.084;5.412;2023-05-02T12:08:42;18.60;99.90
61912;DHT22;49973;52.084;5.412;2023-05-02T12:11:13;18.80;99.90
61912;DHT22;49973;52.084;5.412;2023-05-02T12:13:46;19.10;99.90
61912;DHT22;49973;52.084;5.412;2023-05-02T12:16:16;19.10;99.90
61912;DHT22;49973;52.084;5.412;2023-05-02T12:18:46;19.10;99.90
61912;DHT22;49973;52.084;5.412;2023-05-02T12:21:15;19.20;99.90
61912;DHT22;49973;52.084;5.412;2023-05-02T12:23:45;19.40;99.90
61912;DHT22;49973;52.084;5.412;2023-05-02T12:26:19;19.60;99.90
61912;DHT22;49973;52.084;5.412;2023-05-02T12:28:49;19.10;99.90
61912;DHT22;49973;52.084;5.412;2023-05-02T12:31:18;18.60;99.90
61912;DHT22;49973;52.084;5.412;2023-05-02T12:33:47;18.60;99.90
61912;DHT22;49973;52.084;5.412;2023-05-02T12:36:18;18.90;99.90
61912;DHT22;49973;52.084;5.412;2023-05-02T12:38:49;19.40;99.90
61912;DHT22;49973;52.084;5.412;2023-05-02T12:41:30;19.80;99.90
61912;DHT22;49973;52.084;5.412;2023-05-02T12:43:59;20.20;99.90
61912;DHT22;49973;52.084;5.412;2023-05-02T12:46:28;20.30;99.90
61912;DHT22;49973;52.084;5.412;2023-05-02T12:49:02;20.30;99.90
61912;DHT22;49973;52.084;5.412;2023-05-02T12:51:31;20.40;99.90
61912;DHT22;49973;52.084;5.412;2023-05-02T12:54:02;20.40;99.90
61912;DHT22;49973;52.084;5.412;2023-05-02T12:56:37;20.60;99.90
61912;DHT22;49973;52.084;5.412;2023-05-02T12:59:06;20.60;99.90
61912;DHT22;49973;52.084;5.412;2023-05-02T13:01:35;20.50;99.90
61912;DHT22;49973;52.084;5.412;2023-05-02T13:04:04;20.60;99.90
61912;DHT22;49973;52.084;5.412;2023-05-02T13:06:33;20.80;99.90
61912;DHT22;49973;52.084;5.412;2023-05-02T13:09:06;20.70;99.80
61912;DHT22;49973;52.084;5.412;2023-05-02T13:11:34;20.60;99.50
61912;DHT22;49973;52.084;5.412;2023-05-02T13:14:03;20.70;99.30
61912;DHT22;49973;52.084;5.412;2023-05-02T13:16:32;20.60;98.90
61912;DHT22;49973;52.084;5.412;2023-05-02T13:19:03;20.50;98.70
61912;DHT22;49973;52.084;5.412;2023-05-02T13:21:32;20.50;98.50
61912;DHT22;49973;52.084;5.412;2023-05-02T13:24:01;20.50;98.40
61912;DHT22;49973;52.084;5.412;2023-05-02T13:26:32;20.60;98.40
61912;DHT22;49973;52.084;5.412;2023-05-02T13:29:00;20.60;98.30
61912;DHT22;49973;52.084;5.412;2023-05-02T13:31:29;20.40;98.00
61912;DHT22;49973;52.084;5.412;2023-05-02T13:33:57;20.10;97.40
61912;DHT22;49973;52.084;5.412;2023-05-02T13:36:26;19.70;96.90
61912;DHT22;49973;52.084;5.412;2023-05-02T13:38:55;19.50;96.90
61912;DHT22;49973;52.084;5.412;2023-05-02T13:41:23;19.40;96.90
61912;DHT22;49973;52.084;5.412;2023-05-02T13:43:53;19.50;96.90
61912;DHT22;49973;52.084;5.412;2023-05-02T13:46:23;19.40;96.40
61912;DHT22;49973;52.084;5.412;2023-05-02T13:48:52;19.20;96.10
61912;DHT22;49973;52.084;5.412;2023-05-02T13:51:20;19.00;96.00
61912;DHT22;49973;52.084;5.412;2023-05-02T13:53:50;19.00;96.20
61912;DHT22;49973;52.084;5.412;2023-05-02T13:56:19;19.00;95.90
61912;DHT22;49973;52.084;5.412;2023-05-02T13:58:48;19.00;95.70
61912;DHT22;49973;52.084;5.412;2023-05-02T14:01:18;18.80;95.50
61912;DHT22;49973;52.084;5.412;2023-05-02T14:03:46;18.70;95.70
61912;DHT22;49973;52.084;5.412;2023-05-02T14:06:15;18.80;95.70
61912;DHT22;49973;52.084;5.412;2023-05-02T14:08:44;19.00;95.80
61912;DHT22;49973;52.084;5.412;2023-05-02T14:11:12;19.10;95.30
61912;DHT22;49973;52.084;5.412;2023-05-02T14:13:41;19.00;95.00
61912;DHT22;49973;52.084;5.412;2023-05-02T14:16:09;19.00;95.30
61912;DHT22;49973;52.084;5.412;2023-05-02T14:18:39;19.20;95.00
61912;DHT22;49973;52.084;5.412;2023-05-02T14:21:08;19.40;94.90
61912;DHT22;49973;52.084;5.412;2023-05-02T14:23:37;19.20;94.20
61912;DHT22;49973;52.084;5.412;2023-05-02T14:26:05;18.80;94.10
61912;DHT22;49973;52.084;5.412;2023-05-02T14:28:34;18.50;94.20
61912;DHT22;49973;52.084;5.412;2023-05-02T14:31:05;18.30;94.30
61912;DHT22;49973;52.084;5.412;2023-05-02T14:33:34;18.40;94.50
61912;DHT22;49973;52.084;5.412;2023-05-02T14:36:04;18.20;94.20
61912;DHT22;49973;52.084;5.412;2023-05-02T14:38:33;18.00;94.10
61912;DHT22;49973;52.084;5.412;2023-05-02T14:41:02;17.90;93.90
61912;DHT22;49973;52.084;5.412;2023-05-02T14:43:30;17.70;93.80
61912;DHT22;49973;52.084;5.412;2023-05-02T14:45:59;17.60;93.40
61912;DHT22;49973;52.084;5.412;2023-05-02T14:48:28;17.40;92.90
61912;DHT22;49973;52.084;5.412;2023-05-02T14:50:57;17.20;92.90
61912;DHT22;49973;52.084;5.412;2023-05-02T14:53:28;17.20;92.90
61912;DHT22;49973;52.084;5.412;2023-05-02T14:55:57;17.20;93.00
61912;DHT22;49973;52.084;5.412;2023-05-02T14:58:26;17.30;93.00
61912;DHT22;49973;52.084;5.412;2023-05-02T15:00:54;17.30;93.00
61912;DHT22;49973;52.084;5.412;2023-05-02T15:03:23;17.30;93.00
61912;DHT22;49973;52.084;5.412;2023-05-02T15:05:52;17.30;92.80
61912;DHT22;49973;52.084;5.412;2023-05-02T15:08:20;17.20;92.60
61912;DHT22;49973;52.084;5.412;2023-05-02T15:10:50;17.10;92.60
61912;DHT22;49973;52.084;5.412;2023-05-02T15:13:20;17.10;92.60
61912;DHT22;49973;52.084;5.412;2023-05-02T15:15:49;17.20;92.80
61912;DHT22;49973;52.084;5.412;2023-05-02T15:18:20;17.40;92.90
61912;DHT22;49973;52.084;5.412;2023-05-02T15:20:48;17.70;92.90
61912;DHT22;49973;52.084;5.412;2023-05-02T15:23:17;17.60;92.60
61912;DHT22;49973;52.084;5.412;2023-05-02T15:25:46;17.60;92.60
61912;DHT22;49973;52.084;5.412;2023-05-02T15:28:16;17.50;92.50
61912;DHT22;49973;52.084;5.412;2023-05-02T15:30:44;17.30;92.30
61912;DHT22;49973;52.084;5.412;2023-05-02T15:33:15;17.30;92.30
61912;DHT22;49973;52.084;5.412;2023-05-02T15:35:51;17.30;92.10
61912;DHT22;49973;52.084;5.412;2023-05-02T15:38:21;17.00;91.50
61912;DHT22;49973;52.084;5.412;2023-05-02T15:40:53;16.80;91.40
61912;DHT22;49973;52.084;5.412;2023-05-02T15:43:23;16.70;91.30
61912;DHT22;49973;52.084;5.412;2023-05-02T15:45:53;16.80;91.30
61912;DHT22;49973;52.084;5.412;2023-05-02T15:48:25;17.10;91.40
61912;DHT22;49973;52.084;5.412;2023-05-02T15:50:54;17.30;91.20
61912;DHT22;49973;52.084;5.412;2023-05-02T15:53:23;17.30;91.10
61912;DHT22;49973;52.084;5.412;2023-05-02T15:55:51;17.20;91.00
61912;DHT22;49973;52.084;5.412;2023-05-02T15:58:20;17.20;90.90
61912;DHT22;49973;52.084;5.412;2023-05-02T16:00:50;17.00;90.70